Time;durP1;ratioP1;P1;durP2;ratioP2;P2;SDS_P1;SDS_P2;PMS_P1;PMS_P2;Temp;Humidity;BMP_temperature;BMP_pressure;BME280_temperature;BME280_humidity;BME280_pressure;Samples;Min_cycle;Max_cycle;Signal;HPM_P1;HPM_P2
2022/12/01 00:00:31;;;;;;;36.53;15.97;;;;;;;;;;5033557;28;20021;-92
2022/12/01 00:02:57;;;;;;;36.28;15.07;;;;;;;;;;5034369;28;20076;-92
2022/12/01 00:05:22;;;;;;;35.93;16.03;;;;;;;;;;5034364;28;20026;-92
2022/12/01 00:07:48;;;;;;;41.07;16.33;;;;;;;;;;5034557;28;20056;-92
2022/12/01 00:10:25;;;;;;;38.00;16.53;;;;;;;;;;5034206;28;20028;-92
2022/12/01 00:12:54;;;;;;;34.65;16.48;;;;;;;;;;5020263;28;20022;-92
2022/12/01 00:15:20;;;;;;;38.20;15.90;;;;;;;;;;5034061;28;20029;-92
2022/12/01 00:17:46;;;;;;;33.33;15.27;;;;;;;;;;5033998;28;20027;-92
2022/12/01 00:20:12;;;;;;;30.17;14.67;;;;;;;;;;5032840;28;20369;-92
2022/12/01 00:22:37;;;;;;;38.17;16.97;;;;;;;;;;5033555;28;20021;-92
2022/12/01 00:25:03;;;;;;;38.50;15.80;;;;;;;;;;5034104;28;20020;-92
2022/12/01 00:27:28;;;;;;;43.60;16.57;;;;;;;;;;5033900;28;20071;-92
2022/12/01 00:29:53;;;;;;;41.10;16.23;;;;;;;;;;5035067;28;20080;-92
2022/12/01 00:32:18;;;;;;;37.57;16.67;;;;;;;;;;5032571;28;20120;-93
2022/12/01 00:34:44;;;;;;;39.87;16.50;;;;;;;;;;5033792;28;20085;-93
2022/12/01 00:37:09;;;;;;;37.03;16.07;;;;;;;;;;5033832;28;20021;-92
2022/12/01 00:39:34;;;;;;;30.90;15.20;;;;;;;;;;5033854;28;20096;-92
2022/12/01 00:41:59;;;;;;;40.80;16.70;;;;;;;;;;5031368;28;20025;-92
2022/12/01 00:44:25;;;;;;;39.00;16.43;;;;;;;;;;5033639;28;20022;-92
2022/12/01 00:46:50;;;;;;;35.87;16.40;;;;;;;;;;5033535;28;20057;-92
2022/12/01 00:49:15;;;;;;;38.30;17.33;;;;;;;;;;5033648;28;20464;-91
2022/12/01 00:51:40;;;;;;;42.77;17.87;;;;;;;;;;5033399;28;20029;-92
2022/12/01 00:54:06;;;;;;;35.27;15.47;;;;;;;;;;5033473;28;20017;-92
2022/12/01 00:56:31;;;;;;;38.37;16.80;;;;;;;;;;5033475;28;20527;-92
2022/12/01 00:58:56;;;;;;;34.40;15.73;;;;;;;;;;5033256;28;20017;-92
2022/12/01 01:01:21;;;;;;;46.70;16.47;;;;;;;;;;5031698;28;20021;-92
2022/12/01 01:03:47;;;;;;;38.83;16.63;;;;;;;;;;5033017;28;20053;-92
2022/12/01 01:06:12;;;;;;;34.93;15.50;;;;;;;;;;5033485;28;20381;-92
2022/12/01 01:08:37;;;;;;;38.92;16.00;;;;;;;;;;5033362;28;20029;-92
2022/12/01 01:11:03;;;;;;;38.28;16.33;;;;;;;;;;5033013;28;20354;-92
2022/12/01 01:13:28;;;;;;;35.43;15.90;;;;;;;;;;5033137;28;20409;-91
2022/12/01 01:16:04;;;;;;;35.55;15.00;;;;;;;;;;5032283;28;20068;-92
2022/12/01 01:18:31;;;;;;;39.03;16.13;;;;;;;;;;5036412;28;20021;-91
2022/12/01 01:20:57;;;;;;;35.57;15.03;;;;;;;;;;5034076;28;20040;-92
2022/12/01 01:23:23;;;;;;;39.17;16.25;;;;;;;;;;5032701;28;20465;-92
2022/12/01 01:25:48;;;;;;;38.23;15.80;;;;;;;;;;5032847;28;20051;-92
2022/12/01 01:28:13;;;;;;;35.67;15.07;;;;;;;;;;5033055;28;20118;-91
2022/12/01 01:30:38;;;;;;;40.10;16.20;;;;;;;;;;5032909;28;20033;-92
2022/12/01 01:33:04;;;;;;;34.87;15.97;;;;;;;;;;5032950;28;20326;-92
2022/12/01 01:35:29;;;;;;;40.17;16.17;;;;;;;;;;5031887;28;20017;-92
2022/12/01 01:37:54;;;;;;;39.53;15.63;;;;;;;;;;5032541;28;20028;-92
2022/12/01 01:40:19;;;;;;;40.53;16.53;;;;;;;;;;5032554;28;20445;-93
2022/12/01 01:42:45;;;;;;;36.27;15.57;;;;;;;;;;5031970;28;20021;-92
2022/12/01 01:45:21;;;;;;;38.47;16.77;;;;;;;;;;5032513;28;20071;-92
2022/12/01 01:47:48;;;;;;;34.40;14.07;;;;;;;;;;5032526;28;20427;-93
2022/12/01 01:50:17;;;;;;;42.87;15.93;;;;;;;;;;5032416;28;20025;-92
2022/12/01 01:52:44;;;;;;;34.33;14.77;;;;;;;;;;5032498;28;20028;-92
2022/12/01 01:55:12;;;;;;;37.53;14.97;;;;;;;;;;5031783;28;20028;-93
2022/12/01 01:57:37;;;;;;;32.83;15.10;;;;;;;;;;5032331;28;20061;-92
2022/12/01 02:00:06;;;;;;;34.27;14.90;;;;;;;;;;5032169;28;20009;-92
2022/12/01 02:02:39;;;;;;;34.57;14.97;;;;;;;;;;5032240;28;20033;-92
2022/12/01 02:05:09;;;;;;;48.93;15.10;;;;;;;;;;5032261;28;20055;-92
2022/12/01 02:07:35;;;;;;;38.90;14.73;;;;;;;;;;5032214;28;20029;-92
2022/12/01 02:10:00;;;;;;;38.67;15.83;;;;;;;;;;5032163;28;20021;-93
2022/12/01 02:12:34;;;;;;;38.17;15.93;;;;;;;;;;5032042;28;20358;-92
2022/12/01 02:15:18;;;;;;;35.70;14.53;;;;;;;;;;5032460;28;20026;-93
2022/12/01 02:18:03;;;;;;;35.73;14.40;;;;;;;;;;5026623;28;20426;-93
2022/12/01 02:20:55;;;;;;;35.90;14.95;;;;;;;;;;5032134;28;20022;-92
2022/12/01 02:23:39;;;;;;;36.25;15.38;;;;;;;;;;5027460;28;20017;-92
2022/12/01 02:26:23;;;;;;;40.93;15.80;;;;;;;;;;5048662;28;20033;-92
2022/12/01 02:28:58;;;;;;;40.65;16.58;;;;;;;;;;5032208;28;20025;-93
2022/12/01 02:31:27;;;;;;;34.47;14.07;;;;;;;;;;5039411;28;20041;-93
2022/12/01 02:34:05;;;;;;;39.47;15.43;;;;;;;;;;5030920;28;20040;-92
2022/12/01 02:36:37;;;;;;;42.50;15.23;;;;;;;;;;5031280;28;20033;-92
2022/12/01 02:39:02;;;;;;;46.22;16.35;;;;;;;;;;5031733;28;20117;-92
2022/12/01 02:41:31;;;;;;;44.43;14.90;;;;;;;;;;5048547;28;20026;-92
2022/12/01 02:44:15;;;;;;;46.50;14.97;;;;;;;;;;5031877;28;20017;-92
2022/12/01 02:46:44;;;;;;;42.50;15.70;;;;;;;;;;5048426;28;20060;-92
2022/12/01 02:49:12;;;;;;;43.73;16.53;;;;;;;;;;5031739;28;20017;-92
2022/12/01 02:51:38;;;;;;;44.50;16.00;;;;;;;;;;5031972;28;20025;-93
2022/12/01 02:54:04;;;;;;;39.50;16.00;;;;;;;;;;5030776;28;20047;-93
2022/12/01 02:56:29;;;;;;;43.80;16.63;;;;;;;;;;5031604;28;20029;-92
2022/12/01 02:58:55;;;;;;;45.07;16.63;;;;;;;;;;5031740;28;20156;-93
2022/12/01 03:01:20;;;;;;;47.33;17.30;;;;;;;;;;5031760;28;20093;-93
2022/12/01 03:03:54;;;;;;;45.73;15.70;;;;;;;;;;5048290;28;20032;-92
2022/12/01 03:06:28;;;;;;;54.77;15.90;;;;;;;;;;5031616;28;20022;-92
2022/12/01 03:09:09;;;;;;;44.07;15.90;;;;;;;;;;5031795;28;20331;-93
2022/12/01 03:11:42;;;;;;;49.47;17.60;;;;;;;;;;5034897;28;20433;-93
2022/12/01 03:14:13;;;;;;;44.73;16.73;;;;;;;;;;5031749;28;20433;-92
2022/12/01 03:16:38;;;;;;;42.25;16.05;;;;;;;;;;5046940;28;20029;-92
2022/12/01 03:19:22;;;;;;;48.50;15.80;;;;;;;;;;5048160;28;20101;-92
2022/12/01 03:21:50;;;;;;;47.37;16.27;;;;;;;;;;5018501;28;20112;-93
2022/12/01 03:24:18;;;;;;;48.03;16.83;;;;;;;;;;5049972;28;20021;-92
2022/12/01 03:26:45;;;;;;;53.43;16.57;;;;;;;;;;5035104;28;20025;-92
2022/12/01 03:29:21;;;;;;;45.00;16.63;;;;;;;;;;5035028;28;20123;-93
2022/12/01 03:31:49;;;;;;;46.17;16.70;;;;;;;;;;5034835;28;20025;-92
2022/12/01 03:34:37;;;;;;;50.20;16.77;;;;;;;;;;5031091;28;20013;-92
2022/12/01 03:37:06;;;;;;;52.10;16.90;;;;;;;;;;5034848;28;20444;-92
2022/12/01 03:39:34;;;;;;;57.27;17.97;;;;;;;;;;5034851;28;20025;-92
2022/12/01 03:42:19;;;;;;;52.87;16.87;;;;;;;;;;5034834;28;20136;-92
2022/12/01 03:44:57;;;;;;;48.33;15.60;;;;;;;;;;5034876;28;20476;-92
2022/12/01 03:47:23;;;;;;;43.70;15.57;;;;;;;;;;5037626;28;20071;-92
2022/12/01 03:49:49;;;;;;;52.07;16.80;;;;;;;;;;5034761;28;20385;-94
2022/12/01 03:52:18;;;;;;;55.27;18.17;;;;;;;;;;5033995;28;20025;-92
2022/12/01 03:55:02;;;;;;;50.10;15.77;;;;;;;;;;5034592;28;20022;-92
2022/12/01 03:57:32;;;;;;;42.17;15.60;;;;;;;;;;5034497;28;20037;-92
2022/12/01 03:59:58;;;;;;;47.83;16.53;;;;;;;;;;5034625;28;20048;-92
2022/12/01 04:02:26;;;;;;;43.20;15.83;;;;;;;;;;5034225;28;20016;-91
2022/12/01 04:04:51;;;;;;;47.58;15.77;;;;;;;;;;5034474;28;20376;-92
2022/12/01 04:07:16;;;;;;;56.47;17.27;;;;;;;;;;5032271;28;20025;-92
2022/12/01 04:09:42;;;;;;;53.42;17.02;;;;;;;;;;5035641;28;20025;-91
2022/12/01 04:12:28;;;;;;;46.13;16.40;;;;;;;;;;5027739;28;20071;-92
2022/12/01 04:14:55;;;;;;;44.43;15.10;;;;;;;;;;5039542;28;20018;-91
2022/12/01 04:17:20;;;;;;;44.97;15.13;;;;;;;;;;5033821;28;20060;-91
2022/12/01 04:19:45;;;;;;;51.53;16.73;;;;;;;;;;5034182;28;20049;-92
2022/12/01 04:22:10;;;;;;;53.83;17.45;;;;;;;;;;5034071;28;20026;-92
2022/12/01 04:24:35;;;;;;;46.97;15.82;;;;;;;;;;5033934;28;20022;-92
2022/12/01 04:27:01;;;;;;;54.25;17.33;;;;;;;;;;5034066;28;20473;-91
2022/12/01 04:29:26;;;;;;;48.07;16.83;;;;;;;;;;5033881;28;20025;-91
2022/12/01 04:31:51;;;;;;;46.83;15.83;;;;;;;;;;5033914;28;20025;-92
2022/12/01 04:34:18;;;;;;;44.75;15.75;;;;;;;;;;5031532;28;20503;-91
2022/12/01 04:36:43;;;;;;;50.57;17.80;;;;;;;;;;5033604;28;20021;-92
2022/12/01 04:39:09;;;;;;;47.22;17.55;;;;;;;;;;5033907;28;20105;-92
2022/12/01 04:41:35;;;;;;;45.38;15.13;;;;;;;;;;5033560;28;20018;-92
2022/12/01 04:44:00;;;;;;;45.63;15.65;;;;;;;;;;5033643;28;20326;-92
2022/12/01 04:46:26;;;;;;;47.77;16.27;;;;;;;;;;5033752;28;20017;-92
2022/12/01 04:48:53;;;;;;;49.47;17.70;;;;;;;;;;5033509;28;20460;-92
2022/12/01 04:51:18;;;;;;;54.27;17.03;;;;;;;;;;5033320;28;20022;-91
2022/12/01 04:53:45;;;;;;;52.27;17.47;;;;;;;;;;5032790;28;20029;-92
2022/12/01 04:56:10;;;;;;;54.53;17.23;;;;;;;;;;5034608;28;20497;-92
2022/12/01 04:58:36;;;;;;;54.30;16.58;;;;;;;;;;5033279;28;20018;-92
2022/12/01 05:01:09;;;;;;;48.33;16.52;;;;;;;;;;5033350;28;20018;-92
2022/12/01 05:03:35;;;;;;;53.53;16.50;;;;;;;;;;5033423;28;20122;-92
2022/12/01 05:06:01;;;;;;;54.00;17.17;;;;;;;;;;5033061;28;20013;-91
2022/12/01 05:08:28;;;;;;;50.97;17.17;;;;;;;;;;5033253;28;20100;-92
2022/12/01 05:10:55;;;;;;;47.47;16.42;;;;;;;;;;5033309;28;20504;-92
2022/12/01 05:13:20;;;;;;;51.03;17.20;;;;;;;;;;5032757;28;20361;-92
2022/12/01 05:15:45;;;;;;;49.10;16.95;;;;;;;;;;5026239;28;20032;-91
2022/12/01 05:18:10;;;;;;;49.17;16.93;;;;;;;;;;5032943;28;20021;-92
2022/12/01 05:23:19;;;;;;;43.40;15.97;;;;;;;;;;5022941;28;20103;-92
2022/12/01 05:25:44;;;;;;;52.57;16.17;;;;;;;;;;5032868;28;20021;-91
2022/12/01 05:28:10;;;;;;;52.53;16.98;;;;;;;;;;5032941;28;20052;-91
2022/12/01 05:30:35;;;;;;;51.80;16.27;;;;;;;;;;5030300;28;20117;-92
2022/12/01 05:33:00;;;;;;;52.17;17.00;;;;;;;;;;5026139;28;20049;-91
2022/12/01 05:35:25;;;;;;;46.72;16.13;;;;;;;;;;5032529;28;20021;-92
2022/12/01 05:37:51;;;;;;;38.67;14.88;;;;;;;;;;5032667;28;20021;-91
2022/12/01 05:40:16;;;;;;;49.88;16.92;;;;;;;;;;5032501;28;20428;-92
2022/12/01 05:42:42;;;;;;;54.07;17.80;;;;;;;;;;5032015;28;20026;-92
2022/12/01 05:45:08;;;;;;;47.72;14.80;;;;;;;;;;5032417;28;20021;-92
2022/12/01 05:47:34;;;;;;;50.13;17.08;;;;;;;;;;5032031;28;20036;-91
2022/12/01 05:50:01;;;;;;;46.90;17.42;;;;;;;;;;5032478;28;20036;-92
2022/12/01 05:52:26;;;;;;;45.30;16.30;;;;;;;;;;5032483;28;20047;-92
2022/12/01 05:54:51;;;;;;;51.78;16.67;;;;;;;;;;5032520;28;20425;-91
2022/12/01 05:57:16;;;;;;;53.65;16.40;;;;;;;;;;5032139;28;20029;-92
2022/12/01 05:59:43;;;;;;;52.22;16.23;;;;;;;;;;5031743;28;20029;-92
2022/12/01 06:02:08;;;;;;;51.72;16.20;;;;;;;;;;5032215;28;20014;-91
2022/12/01 06:04:33;;;;;;;49.75;16.88;;;;;;;;;;5032425;28;20029;-93
2022/12/01 06:06:58;;;;;;;42.70;13.70;;;;;;;;;;5032406;28;20488;-94
2022/12/01 06:09:24;;;;;;;46.50;15.57;;;;;;;;;;5032344;28;20084;-93
2022/12/01 06:11:49;;;;;;;41.38;15.55;;;;;;;;;;5032218;28;20473;-93
2022/12/01 06:14:14;;;;;;;50.47;15.48;;;;;;;;;;5032125;28;20028;-93
2022/12/01 06:16:41;;;;;;;47.08;16.02;;;;;;;;;;5032051;28;20021;-93
2022/12/01 06:19:06;;;;;;;43.35;14.20;;;;;;;;;;5032324;28;20434;-93
2022/12/01 06:21:31;;;;;;;52.17;18.02;;;;;;;;;;5031709;28;20032;-93
2022/12/01 06:23:56;;;;;;;48.67;16.63;;;;;;;;;;5032110;28;20013;-93
2022/12/01 06:26:21;;;;;;;41.63;15.23;;;;;;;;;;5032091;28;20017;-93
2022/12/01 06:28:47;;;;;;;47.53;17.02;;;;;;;;;;5032765;28;20072;-93
2022/12/01 06:31:12;;;;;;;47.28;17.27;;;;;;;;;;5019181;28;20061;-93
2022/12/01 06:33:37;;;;;;;43.60;15.10;;;;;;;;;;5031055;28;20030;-93
2022/12/01 06:36:04;;;;;;;41.05;15.90;;;;;;;;;;5031999;28;20025;-92
2022/12/01 06:38:30;;;;;;;44.65;15.57;;;;;;;;;;5031388;28;20484;-93
2022/12/01 06:40:55;;;;;;;47.42;16.20;;;;;;;;;;5032245;28;20017;-91
2022/12/01 06:43:20;;;;;;;42.05;16.50;;;;;;;;;;5027461;28;20444;-93
2022/12/01 06:45:46;;;;;;;45.28;15.40;;;;;;;;;;5031665;28;20481;-93
2022/12/01 06:48:11;;;;;;;45.05;16.15;;;;;;;;;;5031905;28;20021;-93
2022/12/01 06:50:37;;;;;;;44.65;15.20;;;;;;;;;;5030901;28;20022;-91
2022/12/01 06:53:02;;;;;;;46.53;15.75;;;;;;;;;;5031040;28;20469;-91
2022/12/01 06:55:27;;;;;;;44.33;15.63;;;;;;;;;;5031522;28;20021;-91
2022/12/01 06:57:53;;;;;;;46.53;15.43;;;;;;;;;;5031014;28;20029;-92
2022/12/01 07:00:18;;;;;;;49.13;17.13;;;;;;;;;;5035326;28;20445;-92
2022/12/01 07:02:43;;;;;;;41.70;16.17;;;;;;;;;;5035161;28;20026;-92
2022/12/01 07:05:09;;;;;;;49.05;15.00;;;;;;;;;;5034839;28;20429;-92
2022/12/01 07:07:35;;;;;;;51.88;16.92;;;;;;;;;;5034137;28;20377;-92
2022/12/01 07:10:01;;;;;;;40.05;14.88;;;;;;;;;;5034537;28;20435;-91
2022/12/01 07:12:28;;;;;;;48.50;15.77;;;;;;;;;;5031080;28;20030;-93
2022/12/01 07:14:54;;;;;;;45.27;17.23;;;;;;;;;;5043537;28;20076;-92
2022/12/01 07:17:19;;;;;;;50.60;16.93;;;;;;;;;;5041204;28;20442;-92
2022/12/01 07:19:44;;;;;;;45.77;16.03;;;;;;;;;;5028169;28;20145;-92
2022/12/01 07:22:09;;;;;;;44.80;14.93;;;;;;;;;;5026196;28;20430;-92
2022/12/01 07:24:35;;;;;;;45.22;15.93;;;;;;;;;;5028197;28;20036;-92
2022/12/01 07:27:00;;;;;;;49.92;17.52;;;;;;;;;;5034481;28;20026;-92
2022/12/01 07:29:25;;;;;;;49.13;15.60;;;;;;;;;;5030225;28;20017;-92
2022/12/01 07:31:50;;;;;;;41.43;15.40;;;;;;;;;;5039093;28;20029;-93
2022/12/01 07:34:17;;;;;;;46.28;15.70;;;;;;;;;;5045112;28;20025;-94
2022/12/01 07:36:42;;;;;;;46.60;15.10;;;;;;;;;;5033488;28;20021;-94
2022/12/01 07:39:08;;;;;;;40.90;14.85;;;;;;;;;;5027429;28;20022;-94
2022/12/01 07:41:34;;;;;;;38.85;14.35;;;;;;;;;;5028059;28;20034;-94
2022/12/01 07:43:59;;;;;;;40.88;13.52;;;;;;;;;;5021724;28;20033;-95
2022/12/01 07:46:27;;;;;;;36.38;12.70;;;;;;;;;;5035227;28;20118;-94
2022/12/01 07:48:54;;;;;;;38.25;13.68;;;;;;;;;;5034592;28;20150;-95
2022/12/01 07:51:20;;;;;;;35.75;13.45;;;;;;;;;;5034297;28;20029;-94
2022/12/01 07:53:46;;;;;;;36.15;13.15;;;;;;;;;;5027089;28;20038;-94
2022/12/01 07:56:12;;;;;;;39.55;14.18;;;;;;;;;;5034993;28;20445;-93
2022/12/01 07:58:37;;;;;;;36.40;14.40;;;;;;;;;;5034831;28;20079;-95
2022/12/01 08:01:11;;;;;;;39.42;14.73;;;;;;;;;;5034096;28;20227;-94
2022/12/01 08:03:37;;;;;;;43.35;16.20;;;;;;;;;;5034641;28;20473;-94
2022/12/01 08:06:03;;;;;;;44.00;16.45;;;;;;;;;;5037217;28;20017;-94
2022/12/01 08:08:29;;;;;;;38.67;16.10;;;;;;;;;;5034650;28;20028;-94
2022/12/01 08:10:58;;;;;;;56.70;18.38;;;;;;;;;;5034332;28;20100;-94
2022/12/01 08:13:23;;;;;;;39.88;16.35;;;;;;;;;;5033571;28;20109;-94
2022/12/01 08:15:48;;;;;;;42.47;16.25;;;;;;;;;;5034313;28;20053;-94
2022/12/01 08:18:14;;;;;;;39.95;16.23;;;;;;;;;;5035969;28;20010;-94
2022/12/01 08:20:39;;;;;;;38.92;14.88;;;;;;;;;;5035355;28;20013;-93
2022/12/01 08:23:04;;;;;;;39.00;15.50;;;;;;;;;;5034650;28;20033;-93
2022/12/01 08:25:31;;;;;;;38.38;15.63;;;;;;;;;;5033085;28;20373;-94
2022/12/01 08:27:56;;;;;;;37.95;15.02;;;;;;;;;;5030932;28;20136;-93
2022/12/01 08:30:22;;;;;;;46.20;18.15;;;;;;;;;;5034113;28;20449;-94
2022/12/01 08:32:47;;;;;;;53.10;21.15;;;;;;;;;;5034105;28;20061;-94
2022/12/01 08:35:12;;;;;;;46.30;18.02;;;;;;;;;;5032610;28;20116;-94
2022/12/01 08:37:37;;;;;;;38.78;15.30;;;;;;;;;;5033903;28;20453;-94
2022/12/01 08:40:03;;;;;;;34.92;13.23;;;;;;;;;;5033955;28;20044;-94
2022/12/01 08:42:28;;;;;;;41.90;14.60;;;;;;;;;;5033247;28;20033;-95
2022/12/01 08:44:53;;;;;;;41.20;14.70;;;;;;;;;;5020062;28;20075;-94
2022/12/01 08:47:18;;;;;;;37.53;13.93;;;;;;;;;;5033416;28;20124;-94
2022/12/01 08:49:44;;;;;;;39.78;13.18;;;;;;;;;;5032875;28;20108;-93
2022/12/01 08:52:09;;;;;;;34.85;14.75;;;;;;;;;;5032452;28;20030;-94
2022/12/01 08:54:34;;;;;;;41.85;15.52;;;;;;;;;;5039911;28;20033;-94
2022/12/01 08:56:59;;;;;;;35.92;13.65;;;;;;;;;;5033444;28;20453;-94
2022/12/01 08:59:24;;;;;;;44.28;14.10;;;;;;;;;;5029972;28;20025;-94
2022/12/01 09:01:51;;;;;;;37.22;15.15;;;;;;;;;;5033304;28;20025;-94
2022/12/01 09:04:17;;;;;;;44.13;16.88;;;;;;;;;;5033158;28;20040;-94
2022/12/01 09:06:44;;;;;;;37.78;15.07;;;;;;;;;;5033009;28;20032;-93
2022/12/01 09:09:12;;;;;;;37.25;14.30;;;;;;;;;;5021649;28;20033;-94
2022/12/01 09:11:39;;;;;;;34.47;13.27;;;;;;;;;;5030790;28;20040;-94
2022/12/01 09:14:04;;;;;;;31.23;12.65;;;;;;;;;;5032915;28;20018;-94
2022/12/01 09:16:29;;;;;;;30.63;13.20;;;;;;;;;;5033003;28;20032;-94
2022/12/01 09:18:56;;;;;;;38.28;13.85;;;;;;;;;;5029528;28;20442;-94
2022/12/01 09:21:24;;;;;;;33.30;13.25;;;;;;;;;;5032269;28;20029;-94
2022/12/01 09:23:50;;;;;;;35.60;13.38;;;;;;;;;;5032988;28;20032;-93
2022/12/01 09:26:17;;;;;;;37.08;14.27;;;;;;;;;;5032212;28;20087;-94
2022/12/01 09:28:47;;;;;;;33.15;13.35;;;;;;;;;;5030307;28;20021;-94
2022/12/01 09:31:13;;;;;;;32.97;14.10;;;;;;;;;;5028093;28;20033;-93
2022/12/01 09:33:39;;;;;;;35.08;13.02;;;;;;;;;;5032730;28;20469;-93
2022/12/01 09:36:05;;;;;;;42.50;13.05;;;;;;;;;;5032533;28;20123;-93
2022/12/01 09:38:31;;;;;;;35.13;13.93;;;;;;;;;;5032391;28;20056;-89
2022/12/01 09:40:59;;;;;;;36.55;14.88;;;;;;;;;;5031033;28;20022;-87
2022/12/01 09:43:26;;;;;;;39.35;14.75;;;;;;;;;;5030985;28;20510;-88
2022/12/01 09:45:55;;;;;;;33.10;13.50;;;;;;;;;;5024947;28;20030;-87
2022/12/01 09:48:25;;;;;;;40.75;14.90;;;;;;;;;;5024983;28;20040;-88
2022/12/01 09:50:50;;;;;;;37.83;15.07;;;;;;;;;;5031862;28;20436;-88
2022/12/01 09:53:18;;;;;;;44.05;15.75;;;;;;;;;;5031829;28;20025;-87
2022/12/01 09:55:44;;;;;;;40.90;14.65;;;;;;;;;;5031858;28;20456;-88
2022/12/01 09:58:14;;;;;;;33.13;11.80;;;;;;;;;;5031782;28;20029;-89
2022/12/01 10:00:41;;;;;;;36.88;12.63;;;;;;;;;;5032848;28;20028;-88
2022/12/01 10:03:09;;;;;;;36.35;13.48;;;;;;;;;;5030882;28;20171;-89
2022/12/01 10:05:54;;;;;;;37.03;14.90;;;;;;;;;;5031570;28;20500;-88
2022/12/01 10:08:22;;;;;;;34.42;13.57;;;;;;;;;;5032301;28;20414;-88
2022/12/01 10:10:48;;;;;;;34.20;13.73;;;;;;;;;;5030650;28;20030;-88
2022/12/01 10:13:20;;;;;;;33.78;12.57;;;;;;;;;;5031302;28;20477;-88
2022/12/01 10:15:45;;;;;;;34.97;12.95;;;;;;;;;;5031685;28;20416;-89
2022/12/01 10:18:13;;;;;;;33.92;13.90;;;;;;;;;;5030712;28;20041;-88
2022/12/01 10:20:45;;;;;;;35.03;13.63;;;;;;;;;;5026961;28;20024;-88
2022/12/01 10:23:14;;;;;;;30.58;12.68;;;;;;;;;;5029590;28;20021;-90
2022/12/01 10:25:59;;;;;;;29.73;12.18;;;;;;;;;;5039448;28;20025;-85
2022/12/01 10:28:27;;;;;;;34.58;12.95;;;;;;;;;;5041659;28;20460;-89
2022/12/01 10:30:54;;;;;;;36.63;13.05;;;;;;;;;;5028185;28;20021;-89
2022/12/01 10:33:19;;;;;;;30.50;11.88;;;;;;;;;;5030753;28;20026;-89
2022/12/01 10:35:45;;;;;;;30.55;11.30;;;;;;;;;;5038197;28;20075;-89
2022/12/01 10:38:23;;;;;;;31.95;12.23;;;;;;;;;;5029354;28;20235;-89
2022/12/01 10:40:49;;;;;;;30.38;12.80;;;;;;;;;;5034410;28;20476;-89
2022/12/01 10:43:15;;;;;;;28.33;10.63;;;;;;;;;;5024361;28;20018;-88
2022/12/01 10:45:42;;;;;;;29.27;10.75;;;;;;;;;;5036269;28;20640;-89
2022/12/01 10:48:14;;;;;;;31.33;12.40;;;;;;;;;;5035504;28;20116;-89
2022/12/01 10:50:40;;;;;;;29.27;12.00;;;;;;;;;;5043807;28;20112;-89
2022/12/01 10:53:05;;;;;;;31.30;12.75;;;;;;;;;;5023440;28;20069;-89
2022/12/01 10:55:33;;;;;;;32.17;12.43;;;;;;;;;;5036240;28;20021;-89
2022/12/01 10:57:59;;;;;;;31.27;10.82;;;;;;;;;;5032796;28;20068;-89
2022/12/01 11:00:26;;;;;;;29.23;10.68;;;;;;;;;;5028607;28;20417;-89
2022/12/01 11:02:51;;;;;;;34.28;12.73;;;;;;;;;;5036064;28;20028;-89
2022/12/01 11:05:23;;;;;;;28.98;11.90;;;;;;;;;;5035255;28;20045;-90
2022/12/01 11:07:48;;;;;;;40.83;14.48;;;;;;;;;;5037767;28;20030;-88
2022/12/01 11:10:16;;;;;;;34.03;13.35;;;;;;;;;;5030629;28;20031;-88
2022/12/01 11:12:52;;;;;;;30.38;12.00;;;;;;;;;;5021364;28;20022;-90
2022/12/01 11:15:23;;;;;;;34.40;13.13;;;;;;;;;;5039941;28;20063;-90
2022/12/01 11:17:55;;;;;;;34.35;13.40;;;;;;;;;;5024421;28;20048;-87
2022/12/01 11:20:28;;;;;;;31.98;13.18;;;;;;;;;;5034978;28;20017;-88
2022/12/01 11:23:12;;;;;;;32.95;13.68;;;;;;;;;;5035644;28;20021;-88
2022/12/01 11:25:38;;;;;;;35.55;13.18;;;;;;;;;;5051517;28;20021;-92
2022/12/01 11:28:03;;;;;;;29.83;11.85;;;;;;;;;;5034277;28;20025;-89
2022/12/01 11:30:30;;;;;;;33.63;13.77;;;;;;;;;;5028160;28;20029;-89
2022/12/01 11:32:56;;;;;;;31.50;13.38;;;;;;;;;;5034160;28;20021;-88
2022/12/01 11:35:27;;;;;;;33.95;14.50;;;;;;;;;;5033966;28;20029;-88
2022/12/01 11:37:54;;;;;;;37.13;14.70;;;;;;;;;;5030139;28;20079;-88
2022/12/01 11:40:24;;;;;;;34.95;14.88;;;;;;;;;;5027430;28;20018;-88
2022/12/01 11:42:51;;;;;;;39.75;14.30;;;;;;;;;;5024361;28;20120;-88
2022/12/01 11:45:19;;;;;;;30.70;12.50;;;;;;;;;;5031655;28;20136;-88
2022/12/01 11:48:03;;;;;;;40.60;14.23;;;;;;;;;;5034077;28;20030;-87
2022/12/01 11:50:29;;;;;;;33.60;13.45;;;;;;;;;;5049252;28;20029;-88
2022/12/01 11:52:55;;;;;;;36.20;14.18;;;;;;;;;;5033236;28;20033;-87
2022/12/01 11:55:25;;;;;;;32.75;13.20;;;;;;;;;;5033408;28;20469;-88
2022/12/01 11:57:52;;;;;;;32.60;13.43;;;;;;;;;;5032971;28;20057;-88
2022/12/01 12:00:18;;;;;;;31.55;13.25;;;;;;;;;;5033370;28;20030;-87
2022/12/01 12:02:46;;;;;;;33.08;12.45;;;;;;;;;;5033247;28;20029;-87
2022/12/01 12:05:32;;;;;;;38.17;13.57;;;;;;;;;;5045113;28;20019;-87
2022/12/01 12:08:11;;;;;;;37.67;14.07;;;;;;;;;;5022233;28;20136;-88
2022/12/01 12:10:37;;;;;;;34.30;13.52;;;;;;;;;;5032006;28;20025;-87
2022/12/01 12:13:25;;;;;;;32.83;12.25;;;;;;;;;;5046363;28;20033;-87
2022/12/01 12:16:01;;;;;;;39.22;13.57;;;;;;;;;;5031129;28;20026;-88
2022/12/01 12:18:26;;;;;;;35.67;13.52;;;;;;;;;;5032576;28;20021;-87
2022/12/01 12:20:54;;;;;;;41.78;15.27;;;;;;;;;;5032153;28;20099;-88
2022/12/01 12:23:38;;;;;;;43.60;15.82;;;;;;;;;;5049751;28;20021;-88
2022/12/01 12:26:10;;;;;;;39.90;13.68;;;;;;;;;;5048919;28;20020;-88
2022/12/01 12:28:41;;;;;;;34.25;15.00;;;;;;;;;;5031778;28;20104;-89
2022/12/01 12:31:10;;;;;;;37.35;15.95;;;;;;;;;;5032601;28;20025;-88
2022/12/01 12:33:54;;;;;;;42.00;15.07;;;;;;;;;;5033935;28;20087;-84
2022/12/01 12:36:26;;;;;;;43.60;16.60;;;;;;;;;;5043125;28;20029;-89
2022/12/01 12:39:00;;;;;;;41.03;15.25;;;;;;;;;;5020827;28;20013;-89
2022/12/01 12:41:36;;;;;;;43.40;15.50;;;;;;;;;;5049090;28;20036;-88
2022/12/01 12:44:16;;;;;;;41.97;15.00;;;;;;;;;;5016537;28;20469;-88
2022/12/01 12:47:20;;;;;;;38.20;15.65;;;;;;;;;;5030250;28;20318;-86
2022/12/01 12:49:53;;;;;;;40.60;16.85;;;;;;;;;;5051844;28;20028;-87
2022/12/01 12:52:27;;;;;;;39.60;15.35;;;;;;;;;;5035354;28;20017;-87
2022/12/01 12:55:01;;;;;;;35.45;15.30;;;;;;;;;;5043058;28;20087;-87
2022/12/01 12:57:26;;;;;;;37.78;14.07;;;;;;;;;;5029984;28;20026;-88
2022/12/01 13:00:04;;;;;;;37.65;14.88;;;;;;;;;;5041241;28;20028;-87
2022/12/01 13:02:44;;;;;;;34.92;14.48;;;;;;;;;;5033506;28;20016;-88
2022/12/01 13:05:15;;;;;;;34.10;14.80;;;;;;;;;;5032696;28;20469;-88
2022/12/01 13:07:46;;;;;;;40.92;14.45;;;;;;;;;;5032256;28;20022;-87
2022/12/01 13:10:21;;;;;;;53.00;15.40;;;;;;;;;;5032419;28;20024;-88
2022/12/01 13:12:53;;;;;;;39.40;15.88;;;;;;;;;;5049219;28;20052;-87
2022/12/01 13:15:19;;;;;;;39.13;15.50;;;;;;;;;;5032658;28;20035;-87
2022/12/01 13:17:49;;;;;;;41.55;15.50;;;;;;;;;;5031849;28;20317;-88
2022/12/01 13:20:16;;;;;;;36.67;14.20;;;;;;;;;;5030079;28;20469;-88
2022/12/01 13:22:42;;;;;;;40.47;15.02;;;;;;;;;;5027251;28;20155;-87
2022/12/01 13:25:11;;;;;;;42.78;16.80;;;;;;;;;;5037589;28;20053;-88
2022/12/01 13:27:39;;;;;;;39.85;15.57;;;;;;;;;;5028017;28;20045;-87
2022/12/01 13:30:15;;;;;;;37.15;14.75;;;;;;;;;;5028377;28;20021;-87
2022/12/01 13:32:41;;;;;;;38.50;15.30;;;;;;;;;;5022113;28;20116;-88
2022/12/01 13:35:20;;;;;;;41.97;15.80;;;;;;;;;;5031627;28;20420;-88
2022/12/01 13:37:45;;;;;;;43.20;15.45;;;;;;;;;;5032829;28;20052;-88
2022/12/01 13:40:26;;;;;;;41.08;16.02;;;;;;;;;;5031738;28;20018;-88
2022/12/01 13:43:04;;;;;;;46.30;15.98;;;;;;;;;;5030965;28;20028;-88
2022/12/01 13:45:35;;;;;;;44.05;16.45;;;;;;;;;;5027813;28;20492;-87
2022/12/01 13:48:01;;;;;;;38.63;15.02;;;;;;;;;;5032104;28;20021;-87
2022/12/01 13:50:44;;;;;;;42.85;15.85;;;;;;;;;;5032397;28;20079;-87
2022/12/01 13:53:12;;;;;;;39.22;15.35;;;;;;;;;;5032918;28;20029;-86
2022/12/01 13:55:57;;;;;;;41.92;15.65;;;;;;;;;;5038096;28;20044;-87
2022/12/01 13:58:23;;;;;;;46.95;16.45;;;;;;;;;;5044417;28;20448;-87
2022/12/01 14:00:49;;;;;;;44.97;18.42;;;;;;;;;;5024596;28;20117;-87
2022/12/01 14:03:14;;;;;;;49.80;18.13;;;;;;;;;;5031301;28;20143;-87
2022/12/01 14:05:44;;;;;;;37.85;13.73;;;;;;;;;;5031671;28;20258;-87
2022/12/01 14:08:15;;;;;;;38.85;15.23;;;;;;;;;;5027189;28;20022;-87
2022/12/01 14:10:40;;;;;;;45.25;16.38;;;;;;;;;;5024214;28;20052;-87
2022/12/01 14:13:06;;;;;;;48.95;17.67;;;;;;;;;;5031149;28;20017;-88
2022/12/01 14:15:31;;;;;;;46.83;17.50;;;;;;;;;;5030742;28;20025;-87
2022/12/01 14:17:59;;;;;;;43.40;15.90;;;;;;;;;;5017081;28;20108;-87
2022/12/01 14:20:26;;;;;;;45.83;17.40;;;;;;;;;;5031276;28;20484;-88
2022/12/01 14:23:12;;;;;;;47.22;17.70;;;;;;;;;;5031019;28;20036;-87
2022/12/01 14:25:38;;;;;;;43.25;17.17;;;;;;;;;;5026454;28;20423;-87